sensor_id;sensor_type;location;lat;lon;timestamp;temperature;humidity
24217;DHT22;12356;49.386;8.688;2023-11-21T00:00:05;10.70;74.00
24217;DHT22;12356;49.386;8.688;2023-11-21T00:02:41;10.80;74.50
24217;DHT22;12356;49.386;8.688;2023-11-21T00:05:13;10.70;73.80
24217;DHT22;12356;49.386;8.688;2023-11-21T00:07:47;10.70;74.30
24217;DHT22;12356;49.386;8.688;2023-11-21T00:10:17;10.70;74.20
24217;DHT22;12356;49.386;8.688;2023-11-21T00:12:48;10.70;75.20
24217;DHT22;12356;49.386;8.688;2023-11-21T00:15:19;10.70;75.50
24217;DHT22;12356;49.386;8.688;2023-11-21T00:17:49;10.70;75.30
24217;DHT22;12356;49.386;8.688;2023-11-21T00:20:20;10.70;75.10
24217;DHT22;12356;49.386;8.688;2023-11-21T00:22:51;10.70;74.60
24217;DHT22;12356;49.386;8.688;2023-11-21T00:25:22;10.70;74.40
24217;DHT22;12356;49.386;8.688;2023-11-21T00:27:52;10.70;74.40
24217;DHT22;12356;49.386;8.688;2023-11-21T00:30:24;10.70;74.40
24217;DHT22;12356;49.386;8.688;2023-11-21T00:32:55;10.70;74.90
24217;DHT22;12356;49.386;8.688;2023-11-21T00:35:25;10.70;75.40
24217;DHT22;12356;49.386;8.688;2023-11-21T00:37:56;10.70;75.00
24217;DHT22;12356;49.386;8.688;2023-11-21T00:40:28;10.80;75.00
24217;DHT22;12356;49.386;8.688;2023-11-21T00:42:58;10.70;74.60
24217;DHT22;12356;49.386;8.688;2023-11-21T00:45:29;10.70;75.20
24217;DHT22;12356;49.386;8.688;2023-11-21T00:47:59;10.80;75.20
24217;DHT22;12356;49.386;8.688;2023-11-21T00:50:30;10.80;74.90
24217;DHT22;12356;49.386;8.688;2023-11-21T00:53:01;10.80;74.90
24217;DHT22;12356;49.386;8.688;2023-11-21T00:55:33;10.80;74.50
24217;DHT22;12356;49.386;8.688;2023-11-21T00:58:05;10.80;75.20
24217;DHT22;12356;49.386;8.688;2023-11-21T01:00:37;10.80;75.70
24217;DHT22;12356;49.386;8.688;2023-11-21T01:03:10;10.80;75.30
24217;DHT22;12356;49.386;8.688;2023-11-21T01:05:40;10.80;75.10
24217;DHT22;12356;49.386;8.688;2023-11-21T01:08:11;10.80;74.80
24217;DHT22;12356;49.386;8.688;2023-11-21T01:10:42;10.80;75.30
24217;DHT22;12356;49.386;8.688;2023-11-21T01:13:14;10.80;75.20
24217;DHT22;12356;49.386;8.688;2023-11-21T01:15:45;10.80;75.20
24217;DHT22;12356;49.386;8.688;2023-11-21T01:18:16;10.90;75.60
24217;DHT22;12356;49.386;8.688;2023-11-21T01:20:47;10.90;75.40
24217;DHT22;12356;49.386;8.688;2023-11-21T01:23:18;10.90;75.90
24217;DHT22;12356;49.386;8.688;2023-11-21T01:25:49;10.90;75.60
24217;DHT22;12356;49.386;8.688;2023-11-21T01:28:19;10.90;76.00
24217;DHT22;12356;49.386;8.688;2023-11-21T01:30:50;10.80;75.70
24217;DHT22;12356;49.386;8.688;2023-11-21T01:33:20;10.90;76.50
24217;DHT22;12356;49.386;8.688;2023-11-21T01:35:51;10.90;76.30
24217;DHT22;12356;49.386;8.688;2023-11-21T01:38:25;10.90;76.50
24217;DHT22;12356;49.386;8.688;2023-11-21T01:40:56;10.90;76.00
24217;DHT22;12356;49.386;8.688;2023-11-21T01:43:27;10.90;76.00
24217;DHT22;12356;49.386;8.688;2023-11-21T01:45:58;10.90;75.90
24217;DHT22;12356;49.386;8.688;2023-11-21T01:48:29;10.80;75.90
24217;DHT22;12356;49.386;8.688;2023-11-21T01:51:00;10.80;76.80
24217;DHT22;12356;49.386;8.688;2023-11-21T01:53:31;10.80;76.60
24217;DHT22;12356;49.386;8.688;2023-11-21T01:56:02;10.80;76.30
24217;DHT22;12356;49.386;8.688;2023-11-21T01:58:34;10.80;76.40
24217;DHT22;12356;49.386;8.688;2023-11-21T02:01:04;10.80;76.40
24217;DHT22;12356;49.386;8.688;2023-11-21T02:03:35;10.80;76.60
24217;DHT22;12356;49.386;8.688;2023-11-21T02:06:06;10.80;77.20
24217;DHT22;12356;49.386;8.688;2023-11-21T02:08:37;10.80;77.00
24217;DHT22;12356;49.386;8.688;2023-11-21T02:11:08;10.80;77.20
24217;DHT22;12356;49.386;8.688;2023-11-21T02:13:39;10.80;77.40
24217;DHT22;12356;49.386;8.688;2023-11-21T02:16:13;10.80;77.20
24217;DHT22;12356;49.386;8.688;2023-11-21T02:18:44;10.80;76.90
24217;DHT22;12356;49.386;8.688;2023-11-21T02:21:14;10.80;77.30
24217;DHT22;12356;49.386;8.688;2023-11-21T02:23:45;10.80;77.30
24217;DHT22;12356;49.386;8.688;2023-11-21T02:26:17;10.80;77.60
24217;DHT22;12356;49.386;8.688;2023-11-21T02:28:47;10.70;77.60
24217;DHT22;12356;49.386;8.688;2023-11-21T02:31:18;10.80;78.00
24217;DHT22;12356;49.386;8.688;2023-11-21T02:33:49;10.80;78.20
24217;DHT22;12356;49.386;8.688;2023-11-21T02:36:19;10.90;77.70
24217;DHT22;12356;49.386;8.688;2023-11-21T02:38:52;10.90;77.70
24217;DHT22;12356;49.386;8.688;2023-11-21T02:41:22;10.80;76.90
24217;DHT22;12356;49.386;8.688;2023-11-21T02:43:53;10.80;76.70
24217;DHT22;12356;49.386;8.688;2023-11-21T02:46:23;10.80;77.10
24217;DHT22;12356;49.386;8.688;2023-11-21T02:48:54;10.80;76.40
24217;DHT22;12356;49.386;8.688;2023-11-21T02:51:24;10.80;76.40
24217;DHT22;12356;49.386;8.688;2023-11-21T02:53:55;10.80;77.20
24217;DHT22;12356;49.386;8.688;2023-11-21T02:56:29;10.90;77.50
24217;DHT22;12356;49.386;8.688;2023-11-21T02:59:00;10.90;77.20
24217;DHT22;12356;49.386;8.688;2023-11-21T03:01:31;10.90;77.20
24217;DHT22;12356;49.386;8.688;2023-11-21T03:04:02;10.90;76.70
24217;DHT22;12356;49.386;8.688;2023-11-21T03:06:32;11.00;76.70
24217;DHT22;12356;49.386;8.688;2023-11-21T03:09:04;11.00;76.70
24217;DHT22;12356;49.386;8.688;2023-11-21T03:11:34;11.00;76.50
24217;DHT22;12356;49.386;8.688;2023-11-21T03:14:05;11.00;76.70
24217;DHT22;12356;49.386;8.688;2023-11-21T03:16:36;10.90;76.70
24217;DHT22;12356;49.386;8.688;2023-11-21T03:19:08;10.90;76.50
24217;DHT22;12356;49.386;8.688;2023-11-21T03:21:39;11.00;76.80
24217;DHT22;12356;49.386;8.688;2023-11-21T03:24:09;11.00;76.80
24217;DHT22;12356;49.386;8.688;2023-11-21T03:26:40;10.90;77.00
24217;DHT22;12356;49.386;8.688;2023-11-21T03:29:10;10.90;77.00
24217;DHT22;12356;49.386;8.688;2023-11-21T03:31:41;10.90;76.90
24217;DHT22;12356;49.386;8.688;2023-11-21T03:34:16;10.90;76.90
24217;DHT22;12356;49.386;8.688;2023-11-21T03:36:46;10.90;76.70
24217;DHT22;12356;49.386;8.688;2023-11-21T03:39:17;10.90;77.00
24217;DHT22;12356;49.386;8.688;2023-11-21T03:41:48;11.00;77.40
24217;DHT22;12356;49.386;8.688;2023-11-21T03:44:18;10.90;76.90
24217;DHT22;12356;49.386;8.688;2023-11-21T03:46:49;10.90;76.90
24217;DHT22;12356;49.386;8.688;2023-11-21T03:49:19;10.90;77.50
24217;DHT22;12356;49.386;8.688;2023-11-21T03:51:50;10.90;78.20
24217;DHT22;12356;49.386;8.688;2023-11-21T03:54:20;10.90;78.20
24217;DHT22;12356;49.386;8.688;2023-11-21T03:56:51;10.90;77.90
24217;DHT22;12356;49.386;8.688;2023-11-21T03:59:22;10.90;77.10
24217;DHT22;12356;49.386;8.688;2023-11-21T04:01:56;10.90;77.40
24217;DHT22;12356;49.386;8.688;2023-11-21T04:04:27;11.00;76.60
24217;DHT22;12356;49.386;8.688;2023-11-21T04:06:57;11.00;76.50
24217;DHT22;12356;49.386;8.688;2023-11-21T04:09:28;11.00;76.50
24217;DHT22;12356;49.386;8.688;2023-11-21T04:11:58;10.90;76.40
24217;DHT22;12356;49.386;8.688;2023-11-21T04:14:29;10.90;76.80
24217;DHT22;12356;49.386;8.688;2023-11-21T04:17:00;10.90;76.50
24217;DHT22;12356;49.386;8.688;2023-11-21T04:19:30;10.90;76.50
24217;DHT22;12356;49.386;8.688;2023-11-21T04:22:01;10.90;76.40
24217;DHT22;12356;49.386;8.688;2023-11-21T04:24:32;10.90;76.80
24217;DHT22;12356;49.386;8.688;2023-11-21T04:27:02;10.90;76.60
24217;DHT22;12356;49.386;8.688;2023-11-21T04:29:33;10.90;76.50
24217;DHT22;12356;49.386;8.688;2023-11-21T04:32:05;10.80;76.50
24217;DHT22;12356;49.386;8.688;2023-11-21T04:34:36;10.80;76.50
24217;DHT22;12356;49.386;8.688;2023-11-21T04:37:06;10.90;77.30
24217;DHT22;12356;49.386;8.688;2023-11-21T04:39:37;10.90;77.20
24217;DHT22;12356;49.386;8.688;2023-11-21T04:42:07;10.90;77.30
24217;DHT22;12356;49.386;8.688;2023-11-21T04:44:38;10.80;77.10
24217;DHT22;12356;49.386;8.688;2023-11-21T04:47:11;10.80;77.70
24217;DHT22;12356;49.386;8.688;2023-11-21T04:49:43;10.80;77.60
24217;DHT22;12356;49.386;8.688;2023-11-21T04:52:14;10.90;77.70
24217;DHT22;12356;49.386;8.688;2023-11-21T04:54:44;10.90;77.40
24217;DHT22;12356;49.386;8.688;2023-11-21T04:57:15;10.90;77.60
24217;DHT22;12356;49.386;8.688;2023-11-21T04:59:51;10.90;77.80
24217;DHT22;12356;49.386;8.688;2023-11-21T05:02:21;10.90;78.00
24217;DHT22;12356;49.386;8.688;2023-11-21T05:04:52;10.90;77.70
24217;DHT22;12356;49.386;8.688;2023-11-21T05:07:23;10.90;78.00
24217;DHT22;12356;49.386;8.688;2023-11-21T05:09:57;10.90;77.50
24217;DHT22;12356;49.386;8.688;2023-11-21T05:12:27;10.90;77.50
24217;DHT22;12356;49.386;8.688;2023-11-21T05:14:58;10.90;77.30
24217;DHT22;12356;49.386;8.688;2023-11-21T05:17:28;10.90;76.60
24217;DHT22;12356;49.386;8.688;2023-11-21T05:19:59;10.90;76.50
24217;DHT22;12356;49.386;8.688;2023-11-21T05:22:31;10.90;76.90
24217;DHT22;12356;49.386;8.688;2023-11-21T05:25:03;10.90;76.50
24217;DHT22;12356;49.386;8.688;2023-11-21T05:27:34;10.90;77.10
24217;DHT22;12356;49.386;8.688;2023-11-21T05:30:06;10.90;76.50
24217;DHT22;12356;49.386;8.688;2023-11-21T05:32:37;10.90;76.90
24217;DHT22;12356;49.386;8.688;2023-11-21T05:35:07;10.90;77.20
24217;DHT22;12356;49.386;8.688;2023-11-21T05:37:42;11.00;77.30
24217;DHT22;12356;49.386;8.688;2023-11-21T05:40:13;11.00;76.70
24217;DHT22;12356;49.386;8.688;2023-11-21T05:42:44;11.00;77.10
24217;DHT22;12356;49.386;8.688;2023-11-21T05:45:15;11.00;77.10
24217;DHT22;12356;49.386;8.688;2023-11-21T05:47:46;10.90;76.50
24217;DHT22;12356;49.386;8.688;2023-11-21T05:50:17;10.90;76.50
24217;DHT22;12356;49.386;8.688;2023-11-21T05:52:48;10.90;76.50
24217;DHT22;12356;49.386;8.688;2023-11-21T05:55:19;10.90;76.50
24217;DHT22;12356;49.386;8.688;2023-11-21T05:57:51;10.80;76.40
24217;DHT22;12356;49.386;8.688;2023-11-21T06:00:22;10.90;76.70
24217;DHT22;12356;49.386;8.688;2023-11-21T06:02:53;10.90;75.90
24217;DHT22;12356;49.386;8.688;2023-11-21T06:05:25;10.80;76.40
24217;DHT22;12356;49.386;8.688;2023-11-21T06:07:56;10.90;76.50
24217;DHT22;12356;49.386;8.688;2023-11-21T06:10:29;11.00;76.70
24217;DHT22;12356;49.386;8.688;2023-11-21T06:12:59;11.00;76.30
24217;DHT22;12356;49.386;8.688;2023-11-21T06:15:30;11.00;76.50
24217;DHT22;12356;49.386;8.688;2023-11-21T06:18:00;11.00;76.30
24217;DHT22;12356;49.386;8.688;2023-11-21T06:20:32;10.90;75.60
24217;DHT22;12356;49.386;8.688;2023-11-21T06:23:02;10.90;75.60
24217;DHT22;12356;49.386;8.688;2023-11-21T06:25:34;10.90;75.90
24217;DHT22;12356;49.386;8.688;2023-11-21T06:28:06;10.90;75.80
24217;DHT22;12356;49.386;8.688;2023-11-21T06:30:37;10.90;75.70
24217;DHT22;12356;49.386;8.688;2023-11-21T06:33:08;10.80;75.30
24217;DHT22;12356;49.386;8.688;2023-11-21T06:35:40;10.80;75.90
24217;DHT22;12356;49.386;8.688;2023-11-21T06:38:10;10.90;75.70
24217;DHT22;12356;49.386;8.688;2023-11-21T06:40:41;10.90;76.40
24217;DHT22;12356;49.386;8.688;2023-11-21T06:43:11;10.90;76.40
24217;DHT22;12356;49.386;8.688;2023-11-21T06:45:42;10.90;76.50
24217;DHT22;12356;49.386;8.688;2023-11-21T06:48:14;10.90;76.50
24217;DHT22;12356;49.386;8.688;2023-11-21T06:50:45;10.90;76.50
24217;DHT22;12356;49.386;8.688;2023-11-21T06:53:16;10.90;76.50
24217;DHT22;12356;49.386;8.688;2023-11-21T06:55:47;10.90;76.70
24217;DHT22;12356;49.386;8.688;2023-11-21T06:58:18;11.00;76.50
24217;DHT22;12356;49.386;8.688;2023-11-21T07:00:48;11.10;76.50
24217;DHT22;12356;49.386;8.688;2023-11-21T07:03:20;11.10;76.30
24217;DHT22;12356;49.386;8.688;2023-11-21T07:05:51;11.10;76.10
24217;DHT22;12356;49.386;8.688;2023-11-21T07:08:21;11.20;76.00
24217;DHT22;12356;49.386;8.688;2023-11-21T07:10:52;11.20;75.50
24217;DHT22;12356;49.386;8.688;2023-11-21T07:13:23;11.20;74.80
24217;DHT22;12356;49.386;8.688;2023-11-21T07:15:54;11.20;74.50
24217;DHT22;12356;49.386;8.688;2023-11-21T07:18:24;11.20;73.40
24217;DHT22;12356;49.386;8.688;2023-11-21T07:20:55;11.10;72.10
24217;DHT22;12356;49.386;8.688;2023-11-21T07:23:25;11.20;72.60
24217;DHT22;12356;49.386;8.688;2023-11-21T07:25:56;11.20;72.40
24217;DHT22;12356;49.386;8.688;2023-11-21T07:28:26;11.10;72.90
24217;DHT22;12356;49.386;8.688;2023-11-21T07:30:57;11.10;72.50
24217;DHT22;12356;49.386;8.688;2023-11-21T07:33:28;11.20;72.30
24217;DHT22;12356;49.386;8.688;2023-11-21T07:35:58;11.20;72.10
24217;DHT22;12356;49.386;8.688;2023-11-21T07:38:29;11.20;71.70
24217;DHT22;12356;49.386;8.688;2023-11-21T07:40:59;11.30;71.50
24217;DHT22;12356;49.386;8.688;2023-11-21T07:43:31;11.30;71.30
24217;DHT22;12356;49.386;8.688;2023-11-21T07:46:05;11.30;71.30
24217;DHT22;12356;49.386;8.688;2023-11-21T07:48:35;11.30;71.90
24217;DHT22;12356;49.386;8.688;2023-11-21T07:51:06;11.30;72.20
24217;DHT22;12356;49.386;8.688;2023-11-21T07:53:37;11.30;72.10
24217;DHT22;12356;49.386;8.688;2023-11-21T07:56:09;11.20;72.70
24217;DHT22;12356;49.386;8.688;2023-11-21T07:58:39;11.30;72.40
24217;DHT22;12356;49.386;8.688;2023-11-21T08:01:10;11.20;71.80
24217;DHT22;12356;49.386;8.688;2023-11-21T08:03:42;11.20;71.90
24217;DHT22;12356;49.386;8.688;2023-11-21T08:06:12;11.00;71.30
24217;DHT22;12356;49.386;8.688;2023-11-21T08:08:43;11.00;72.90
24217;DHT22;12356;49.386;8.688;2023-11-21T08:11:13;10.90;72.90
24217;DHT22;12356;49.386;8.688;2023-11-21T08:13:44;10.90;74.80
24217;DHT22;12356;49.386;8.688;2023-11-21T08:16:15;11.00;75.00
24217;DHT22;12356;49.386;8.688;2023-11-21T08:18:47;11.00;74.70
24217;DHT22;12356;49.386;8.688;2023-11-21T08:21:17;11.00;74.80
24217;DHT22;12356;49.386;8.688;2023-11-21T08:23:49;11.10;74.40
24217;DHT22;12356;49.386;8.688;2023-11-21T08:26:24;11.10;73.60
24217;DHT22;12356;49.386;8.688;2023-11-21T08:28:54;11.10;74.40
24217;DHT22;12356;49.386;8.688;2023-11-21T08:31:27;11.20;74.40
24217;DHT22;12356;49.386;8.688;2023-11-21T08:33:57;11.20;74.10
24217;DHT22;12356;49.386;8.688;2023-11-21T08:36:28;11.20;73.20
24217;DHT22;12356;49.386;8.688;2023-11-21T08:38:58;11.20;73.70
24217;DHT22;12356;49.386;8.688;2023-11-21T08:41:29;11.30;73.60
24217;DHT22;12356;49.386;8.688;2023-11-21T08:44:00;11.30;73.80
24217;DHT22;12356;49.386;8.688;2023-11-21T08:46:31;11.30;73.50
24217;DHT22;12356;49.386;8.688;2023-11-21T08:49:02;11.30;73.60
24217;DHT22;12356;49.386;8.688;2023-11-21T08:51:32;11.30;73.60
24217;DHT22;12356;49.386;8.688;2023-11-21T08:54:03;11.40;73.60
24217;DHT22;12356;49.386;8.688;2023-11-21T08:56:39;11.40;73.40
24217;DHT22;12356;49.386;8.688;2023-11-21T08:59:10;11.40;72.50
24217;DHT22;12356;49.386;8.688;2023-11-21T09:01:40;11.40;72.60
24217;DHT22;12356;49.386;8.688;2023-11-21T09:04:11;11.40;73.40
24217;DHT22;12356;49.386;8.688;2023-11-21T09:06:43;11.40;72.70
24217;DHT22;12356;49.386;8.688;2023-11-21T09:09:13;11.50;72.50
24217;DHT22;12356;49.386;8.688;2023-11-21T09:11:44;11.60;72.60
24217;DHT22;12356;49.386;8.688;2023-11-21T09:14:16;11.60;71.40
24217;DHT22;12356;49.386;8.688;2023-11-21T09:16:48;11.60;70.90
24217;DHT22;12356;49.386;8.688;2023-11-21T09:19:19;11.60;70.80
24217;DHT22;12356;49.386;8.688;2023-11-21T09:21:49;11.60;70.10
24217;DHT22;12356;49.386;8.688;2023-11-21T09:24:20;11.60;69.80
24217;DHT22;12356;49.386;8.688;2023-11-21T09:26:51;11.60;70.00
24217;DHT22;12356;49.386;8.688;2023-11-21T09:29:21;11.60;69.70
24217;DHT22;12356;49.386;8.688;2023-11-21T09:31:52;11.60;69.10
24217;DHT22;12356;49.386;8.688;2023-11-21T09:34:25;11.60;70.00
24217;DHT22;12356;49.386;8.688;2023-11-21T09:36:56;11.60;70.40
24217;DHT22;12356;49.386;8.688;2023-11-21T09:39:26;11.50;70.70
24217;DHT22;12356;49.386;8.688;2023-11-21T09:42:04;11.50;72.40
24217;DHT22;12356;49.386;8.688;2023-11-21T09:44:51;11.50;73.60
24217;DHT22;12356;49.386;8.688;2023-11-21T09:47:26;11.40;74.50
24217;DHT22;12356;49.386;8.688;2023-11-21T09:50:00;11.40;74.60
24217;DHT22;12356;49.386;8.688;2023-11-21T09:52:32;11.40;75.70
24217;DHT22;12356;49.386;8.688;2023-11-21T09:55:05;11.40;76.70
24217;DHT22;12356;49.386;8.688;2023-11-21T09:57:36;11.50;77.00
24217;DHT22;12356;49.386;8.688;2023-11-21T10:00:08;11.40;76.90
24217;DHT22;12356;49.386;8.688;2023-11-21T10:02:42;11.50;77.40
24217;DHT22;12356;49.386;8.688;2023-11-21T10:05:12;11.50;78.20
24217;DHT22;12356;49.386;8.688;2023-11-21T10:07:44;11.60;78.10
24217;DHT22;12356;49.386;8.688;2023-11-21T10:10:21;11.50;77.70
24217;DHT22;12356;49.386;8.688;2023-11-21T10:12:55;11.40;76.90
24217;DHT22;12356;49.386;8.688;2023-11-21T10:15:26;11.40;74.90
24217;DHT22;12356;49.386;8.688;2023-11-21T10:17:57;11.20;75.30
24217;DHT22;12356;49.386;8.688;2023-11-21T10:20:29;11.20;76.50
24217;DHT22;12356;49.386;8.688;2023-11-21T10:23:01;11.20;76.70
24217;DHT22;12356;49.386;8.688;2023-11-21T10:25:34;11.20;76.10
24217;DHT22;12356;49.386;8.688;2023-11-21T10:28:07;11.20;76.70
24217;DHT22;12356;49.386;8.688;2023-11-21T10:30:38;11.30;76.30
24217;DHT22;12356;49.386;8.688;2023-11-21T10:33:09;11.30;76.20
24217;DHT22;12356;49.386;8.688;2023-11-21T10:35:47;11.40;76.00
24217;DHT22;12356;49.386;8.688;2023-11-21T10:38:21;11.30;75.60
24217;DHT22;12356;49.386;8.688;2023-11-21T10:40:54;11.30;74.60
24217;DHT22;12356;49.386;8.688;2023-11-21T10:43:25;11.20;74.80
24217;DHT22;12356;49.386;8.688;2023-11-21T10:45:58;11.20;76.00
24217;DHT22;12356;49.386;8.688;2023-11-21T10:48:31;11.20;76.70
24217;DHT22;12356;49.386;8.688;2023-11-21T10:51:07;11.20;76.40
24217;DHT22;12356;49.386;8.688;2023-11-21T10:53:40;11.20;76.90
24217;DHT22;12356;49.386;8.688;2023-11-21T10:56:14;11.20;77.90
24217;DHT22;12356;49.386;8.688;2023-11-21T10:58:50;11.30;78.10
24217;DHT22;12356;49.386;8.688;2023-11-21T11:01:25;11.30;76.80
24217;DHT22;12356;49.386;8.688;2023-11-21T11:04:00;11.20;76.10
24217;DHT22;12356;49.386;8.688;2023-11-21T11:06:32;11.20;75.40
24217;DHT22;12356;49.386;8.688;2023-11-21T11:09:03;11.20;75.40
24217;DHT22;12356;49.386;8.688;2023-11-21T11:11:34;11.10;75.50
24217;DHT22;12356;49.386;8.688;2023-11-21T11:14:10;11.20;75.70
24217;DHT22;12356;49.386;8.688;2023-11-21T11:16:41;11.20;74.90
24217;DHT22;12356;49.386;8.688;2023-11-21T11:19:13;11.20;74.70
24217;DHT22;12356;49.386;8.688;2023-11-21T11:27:46;11.30;73.70
24217;DHT22;12356;49.386;8.688;2023-11-21T11:30:50;11.30;73.30
24217;DHT22;12356;49.386;8.688;2023-11-21T11:33:34;11.20;72.60
24217;DHT22;12356;49.386;8.688;2023-11-21T11:36:23;11.10;71.90
24217;DHT22;12356;49.386;8.688;2023-11-21T11:38:55;11.10;72.40
24217;DHT22;12356;49.386;8.688;2023-11-21T11:41:27;11.00;72.70
24217;DHT22;12356;49.386;8.688;2023-11-21T11:44:00;11.10;74.20
24217;DHT22;12356;49.386;8.688;2023-11-21T11:46:44;11.10;74.40
24217;DHT22;12356;49.386;8.688;2023-11-21T11:49:38;11.10;75.30
24217;DHT22;12356;49.386;8.688;2023-11-21T11:52:35;11.20;75.70
24217;DHT22;12356;49.386;8.688;2023-11-21T11:55:16;11.10;75.40
24217;DHT22;12356;49.386;8.688;2023-11-21T11:57:52;11.10;75.50
24217;DHT22;12356;49.386;8.688;2023-11-21T12:02:58;11.10;76.20
24217;DHT22;12356;49.386;8.688;2023-11-21T12:05:31;11.20;76.70
24217;DHT22;12356;49.386;8.688;2023-11-21T12:08:04;11.20;76.40
24217;DHT22;12356;49.386;8.688;2023-11-21T12:10:38;11.20;76.70
24217;DHT22;12356;49.386;8.688;2023-11-21T12:13:11;11.30;76.10
24217;DHT22;12356;49.386;8.688;2023-11-21T12:15:44;11.30;74.60
24217;DHT22;12356;49.386;8.688;2023-11-21T12:18:16;11.30;73.80
24217;DHT22;12356;49.386;8.688;2023-11-21T12:20:47;11.30;73.20
24217;DHT22;12356;49.386;8.688;2023-11-21T12:23:20;11.30;73.80
24217;DHT22;12356;49.386;8.688;2023-11-21T12:25:51;11.40;74.40
24217;DHT22;12356;49.386;8.688;2023-11-21T12:28:22;11.40;74.70
24217;DHT22;12356;49.386;8.688;2023-11-21T12:30:54;11.40;75.40
24217;DHT22;12356;49.386;8.688;2023-11-21T12:33:25;11.50;75.70
24217;DHT22;12356;49.386;8.688;2023-11-21T12:35:56;11.60;75.90
24217;DHT22;12356;49.386;8.688;2023-11-21T12:38:34;11.60;74.60
24217;DHT22;12356;49.386;8.688;2023-11-21T12:41:09;11.60;74.50
24217;DHT22;12356;49.386;8.688;2023-11-21T12:43:40;11.60;71.80
24217;DHT22;12356;49.386;8.688;2023-11-21T12:46:11;11.80;72.40
24217;DHT22;12356;49.386;8.688;2023-11-21T12:48:44;11.80;71.80
24217;DHT22;12356;49.386;8.688;2023-11-21T12:51:16;11.80;70.20
24217;DHT22;12356;49.386;8.688;2023-11-21T12:53:46;11.80;70.80
24217;DHT22;12356;49.386;8.688;2023-11-21T12:56:18;11.90;68.80
24217;DHT22;12356;49.386;8.688;2023-11-21T12:58:54;11.80;64.30
24217;DHT22;12356;49.386;8.688;2023-11-21T13:01:27;11.80;61.10
24217;DHT22;12356;49.386;8.688;2023-11-21T13:03:59;11.90;61.60
24217;DHT22;12356;49.386;8.688;2023-11-21T13:06:31;11.90;57.00
24217;DHT22;12356;49.386;8.688;2023-11-21T13:09:04;11.90;54.40
24217;DHT22;12356;49.386;8.688;2023-11-21T13:11:36;11.90;54.40
24217;DHT22;12356;49.386;8.688;2023-11-21T13:14:07;11.90;57.40
24217;DHT22;12356;49.386;8.688;2023-11-21T13:16:37;12.00;60.30
24217;DHT22;12356;49.386;8.688;2023-11-21T13:19:09;12.00;60.40
24217;DHT22;12356;49.386;8.688;2023-11-21T13:21:40;12.00;57.70
24217;DHT22;12356;49.386;8.688;2023-11-21T13:24:10;12.00;57.60
24217;DHT22;12356;49.386;8.688;2023-11-21T13:26:41;12.00;58.90
24217;DHT22;12356;49.386;8.688;2023-11-21T13:29:12;12.10;59.00
24217;DHT22;12356;49.386;8.688;2023-11-21T13:31:43;12.10;58.30
24217;DHT22;12356;49.386;8.688;2023-11-21T13:34:14;12.10;58.40
24217;DHT22;12356;49.386;8.688;2023-11-21T13:36:45;12.10;58.00
24217;DHT22;12356;49.386;8.688;2023-11-21T13:39:16;12.10;57.10
24217;DHT22;12356;49.386;8.688;2023-11-21T13:41:48;12.10;56.20
24217;DHT22;12356;49.386;8.688;2023-11-21T13:44:20;12.10;50.60
24217;DHT22;12356;49.386;8.688;2023-11-21T13:46:59;12.10;47.70
24217;DHT22;12356;49.386;8.688;2023-11-21T13:49:30;12.20;44.90
24217;DHT22;12356;49.386;8.688;2023-11-21T13:52:05;12.10;42.70
24217;DHT22;12356;49.386;8.688;2023-11-21T13:54:37;12.10;42.90
24217;DHT22;12356;49.386;8.688;2023-11-21T13:57:08;12.20;44.90
24217;DHT22;12356;49.386;8.688;2023-11-21T13:59:40;12.20;50.60
24217;DHT22;12356;49.386;8.688;2023-11-21T14:02:10;12.20;45.60
24217;DHT22;12356;49.386;8.688;2023-11-21T14:04:48;12.20;40.10
24217;DHT22;12356;49.386;8.688;2023-11-21T14:07:26;12.20;41.10
24217;DHT22;12356;49.386;8.688;2023-11-21T14:10:06;12.30;41.90
24217;DHT22;12356;49.386;8.688;2023-11-21T14:12:43;12.20;35.40
24217;DHT22;12356;49.386;8.688;2023-11-21T14:15:14;12.20;32.50
24217;DHT22;12356;49.386;8.688;2023-11-21T14:17:49;12.10;37.20
24217;DHT22;12356;49.386;8.688;2023-11-21T14:20:20;12.10;41.70
24217;DHT22;12356;49.386;8.688;2023-11-21T14:22:51;12.10;40.50
24217;DHT22;12356;49.386;8.688;2023-11-21T14:25:22;12.10;42.90
24217;DHT22;12356;49.386;8.688;2023-11-21T14:27:53;12.10;43.60
24217;DHT22;12356;49.386;8.688;2023-11-21T14:30:23;12.20;44.00
24217;DHT22;12356;49.386;8.688;2023-11-21T14:32:55;12.10;44.00
24217;DHT22;12356;49.386;8.688;2023-11-21T14:35:25;12.00;40.70
24217;DHT22;12356;49.386;8.688;2023-11-21T14:37:57;12.00;41.80
24217;DHT22;12356;49.386;8.688;2023-11-21T14:40:28;12.00;43.00
24217;DHT22;12356;49.386;8.688;2023-11-21T14:43:03;12.00;40.80
24217;DHT22;12356;49.386;8.688;2023-11-21T14:45:36;12.00;38.30
24217;DHT22;12356;49.386;8.688;2023-11-21T14:48:07;11.90;37.60
24217;DHT22;12356;49.386;8.688;2023-11-21T14:50:56;11.90;38.00
24217;DHT22;12356;49.386;8.688;2023-11-21T14:53:32;11.90;39.10
24217;DHT22;12356;49.386;8.688;2023-11-21T14:56:24;11.80;39.70
24217;DHT22;12356;49.386;8.688;2023-11-21T14:59:01;11.80;35.80
24217;DHT22;12356;49.386;8.688;2023-11-21T15:01:46;11.80;33.70
24217;DHT22;12356;49.386;8.688;2023-11-21T15:04:26;11.80;33.10
24217;DHT22;12356;49.386;8.688;2023-11-21T15:07:07;11.80;34.50
24217;DHT22;12356;49.386;8.688;2023-11-21T15:09:38;11.80;37.00
24217;DHT22;12356;49.386;8.688;2023-11-21T15:12:12;11.80;39.70
24217;DHT22;12356;49.386;8.688;2023-11-21T15:14:50;11.70;38.20
24217;DHT22;12356;49.386;8.688;2023-11-21T15:17:24;11.70;40.50
24217;DHT22;12356;49.386;8.688;2023-11-21T15:20:00;11.70;39.20
24217;DHT22;12356;49.386;8.688;2023-11-21T15:22:31;11.70;40.50
24217;DHT22;12356;49.386;8.688;2023-11-21T15:25:01;11.60;45.40
24217;DHT22;12356;49.386;8.688;2023-11-21T15:27:38;11.50;46.80
24217;DHT22;12356;49.386;8.688;2023-11-21T15:30:09;11.50;46.80
24217;DHT22;12356;49.386;8.688;2023-11-21T15:32:39;11.50;46.80
24217;DHT22;12356;49.386;8.688;2023-11-21T15:35:10;11.40;45.90
24217;DHT22;12356;49.386;8.688;2023-11-21T15:37:43;11.40;41.90
24217;DHT22;12356;49.386;8.688;2023-11-21T15:40:15;11.40;42.20
24217;DHT22;12356;49.386;8.688;2023-11-21T15:42:47;11.40;45.30
24217;DHT22;12356;49.386;8.688;2023-11-21T15:45:18;11.40;46.90
24217;DHT22;12356;49.386;8.688;2023-11-21T15:47:52;11.40;48.00
24217;DHT22;12356;49.386;8.688;2023-11-21T15:50:24;11.40;47.80
24217;DHT22;12356;49.386;8.688;2023-11-21T15:52:55;11.30;47.10
24217;DHT22;12356;49.386;8.688;2023-11-21T15:55:26;11.30;47.10
24217;DHT22;12356;49.386;8.688;2023-11-21T15:57:57;11.40;48.00
24217;DHT22;12356;49.386;8.688;2023-11-21T16:00:28;11.30;48.60
24217;DHT22;12356;49.386;8.688;2023-11-21T16:02:59;11.30;49.10
24217;DHT22;12356;49.386;8.688;2023-11-21T16:05:30;11.30;50.00
24217;DHT22;12356;49.386;8.688;2023-11-21T16:08:02;11.30;50.60